createdAt,value
2022-11-28T00:00:41.388Z,60.44
2022-11-28T00:02:41.570Z,60.39
2022-11-28T00:03:41.464Z,60.39
2022-11-28T00:04:41.680Z,60.28
2022-11-28T00:05:45.659Z,60.18
2022-11-28T00:06:41.395Z,60.43
2022-11-28T00:07:41.534Z,60.63
2022-11-28T00:08:41.379Z,60.63
2022-11-28T00:09:41.420Z,60.91
2022-11-28T00:10:41.378Z,60.91
2022-11-28T00:11:41.499Z,61.03
2022-11-28T00:12:41.464Z,61.14
2022-11-28T00:13:41.447Z,61.16
2022-11-28T00:14:41.696Z,61.09
2022-11-28T00:17:41.402Z,61.05
2022-11-28T00:18:41.465Z,61.05
2022-11-28T00:19:41.435Z,61.01
2022-11-28T00:20:41.445Z,60.98
2022-11-28T00:21:41.415Z,60.98
2022-11-28T00:22:41.426Z,60.95
2022-11-28T00:23:41.438Z,60.90
2022-11-28T00:24:41.688Z,60.78
2022-11-28T00:25:41.418Z,60.78
2022-11-28T00:27:41.465Z,60.83
2022-11-28T00:28:41.449Z,60.83
2022-11-28T00:29:41.529Z,60.91
2022-11-28T00:30:41.483Z,60.96
2022-11-28T00:31:41.530Z,61.07
2022-11-28T00:32:41.466Z,61.07
2022-11-28T00:33:41.478Z,61.07
2022-11-28T00:34:41.817Z,61.15
2022-11-28T00:35:41.483Z,61.26
2022-11-28T00:36:41.468Z,61.40
2022-11-28T00:37:41.529Z,61.38
2022-11-28T00:39:41.481Z,61.44
2022-11-28T00:40:41.489Z,61.48
2022-11-28T00:43:41.457Z,61.56
2022-11-28T00:44:41.892Z,61.67
2022-11-28T00:46:41.513Z,61.75
2022-11-28T00:47:41.567Z,61.69
2022-11-28T00:48:41.515Z,61.69
2022-11-28T00:49:41.541Z,61.51
2022-11-28T00:50:41.550Z,61.35
2022-11-28T00:51:41.490Z,61.45
2022-11-28T00:52:41.550Z,61.47
2022-11-28T00:54:41.967Z,61.37
2022-11-28T00:55:41.561Z,61.46
2022-11-28T00:57:41.519Z,61.51
2022-11-28T01:00:41.651Z,61.43
2022-11-28T01:01:41.635Z,61.43
2022-11-28T01:03:41.529Z,61.46
2022-11-28T01:04:41.743Z,61.46
2022-11-28T01:05:41.599Z,61.40
2022-11-28T01:06:41.547Z,61.40
2022-11-28T01:07:41.596Z,61.40
2022-11-28T01:08:41.541Z,61.37
2022-11-28T01:09:41.580Z,61.37
2022-11-28T01:12:41.603Z,61.49
2022-11-28T01:14:41.826Z,61.48
2022-11-28T01:15:41.589Z,61.42
2022-11-28T01:17:41.619Z,61.43
2022-11-28T01:18:41.561Z,61.49
2022-11-28T01:19:41.614Z,61.43
2022-11-28T01:22:41.588Z,61.33
2022-11-28T01:23:41.600Z,61.33
2022-11-28T01:24:41.770Z,61.34
2022-11-28T01:25:41.601Z,61.56
2022-11-28T01:26:41.564Z,61.56
2022-11-28T01:27:41.600Z,61.71
2022-11-28T01:28:41.597Z,61.79
2022-11-28T01:29:41.593Z,61.91
2022-11-28T01:30:41.669Z,62.00
2022-11-28T01:31:41.646Z,62.01
2022-11-28T01:32:41.628Z,61.97
2022-11-28T01:33:41.642Z,62.21
2022-11-28T01:34:41.786Z,62.21
2022-11-28T01:35:41.655Z,62.36
2022-11-28T01:36:41.590Z,62.47
2022-11-28T01:37:41.633Z,62.56
2022-11-28T01:38:41.658Z,62.68
2022-11-28T01:39:41.624Z,62.68
2022-11-28T01:40:41.683Z,62.46
2022-11-28T01:41:41.627Z,62.46
2022-11-28T01:42:41.662Z,62.27
2022-11-28T01:44:41.894Z,62.24
2022-11-28T01:45:41.661Z,62.30
2022-11-28T01:46:41.712Z,62.22
2022-11-28T01:47:41.626Z,62.13
2022-11-28T01:48:41.691Z,62.10
2022-11-28T01:49:41.635Z,62.10
2022-11-28T01:50:41.710Z,62.01
2022-11-28T01:51:41.673Z,61.96
2022-11-28T01:52:41.659Z,61.96
2022-11-28T01:54:41.903Z,62.01
2022-11-28T01:55:41.644Z,61.89
2022-11-28T01:56:41.660Z,61.89
2022-11-28T01:57:41.638Z,61.89
2022-11-28T01:59:41.679Z,62.00
2022-11-28T02:01:41.764Z,62.15
2022-11-28T02:02:41.684Z,62.18
2022-11-28T02:03:41.731Z,62.16
2022-11-28T02:04:42.043Z,62.16
2022-11-28T02:06:41.740Z,62.33
2022-11-28T02:07:41.767Z,62.33
2022-11-28T02:08:41.759Z,62.21
2022-11-28T02:09:41.712Z,62.22
2022-11-28T02:10:41.715Z,62.22
2022-11-28T02:11:41.710Z,62.11
2022-11-28T02:12:41.698Z,62.11
2022-11-28T02:13:41.732Z,62.14
2022-11-28T02:14:42.094Z,62.11
2022-11-28T02:16:41.788Z,61.97
2022-11-28T02:18:43.949Z,61.91
2022-11-28T02:20:41.722Z,61.95
2022-11-28T02:21:41.761Z,62.10
2022-11-28T02:22:41.773Z,62.08
2022-11-28T02:23:41.784Z,61.98
2022-11-28T02:24:41.890Z,61.90
2022-11-28T02:25:41.721Z,61.90
2022-11-28T02:26:41.794Z,61.87
2022-11-28T02:27:41.733Z,61.87
2022-11-28T02:30:41.772Z,62.03
2022-11-28T02:32:41.759Z,62.02
2022-11-28T02:35:41.778Z,61.86
2022-11-28T02:36:41.761Z,61.97
2022-11-28T02:37:41.781Z,61.99
2022-11-28T02:38:41.792Z,62.15
2022-11-28T02:39:41.808Z,62.19
2022-11-28T02:42:41.760Z,62.27
2022-11-28T02:43:41.805Z,62.23
2022-11-28T02:46:41.795Z,62.20
2022-11-28T02:47:41.838Z,62.25
2022-11-28T02:48:41.763Z,62.25
2022-11-28T02:49:41.845Z,62.50
2022-11-28T02:50:41.799Z,62.50
2022-11-28T02:52:41.836Z,62.68
2022-11-28T02:53:41.806Z,62.65
2022-11-28T02:54:42.287Z,62.63
2022-11-28T02:55:41.786Z,62.63
2022-11-28T02:56:41.779Z,62.70
2022-11-28T02:57:41.849Z,62.66
2022-11-28T02:58:41.832Z,62.66
2022-11-28T02:59:41.803Z,62.75
2022-11-28T03:00:41.851Z,62.74
2022-11-28T03:01:41.862Z,62.74
2022-11-28T03:04:42.004Z,62.74
2022-11-28T03:05:41.869Z,62.66
2022-11-28T03:06:41.839Z,62.67
2022-11-28T03:07:41.928Z,62.69
2022-11-28T03:08:41.854Z,62.69
2022-11-28T03:09:41.814Z,62.69
2022-11-28T03:11:41.856Z,62.70
2022-11-28T03:12:41.888Z,62.78
2022-11-28T03:13:41.878Z,62.74
2022-11-28T03:15:41.915Z,62.68
2022-11-28T03:16:41.911Z,62.65
2022-11-28T03:17:41.878Z,62.60
2022-11-28T03:20:41.920Z,62.56
2022-11-28T03:25:41.931Z,62.61
2022-11-28T03:26:41.878Z,62.61
2022-11-28T03:27:41.902Z,62.77
2022-11-28T03:28:43.816Z,62.77
2022-11-28T03:29:41.911Z,63.08
2022-11-28T03:31:42.024Z,63.16
2022-11-28T03:32:41.882Z,63.19
2022-11-28T03:33:41.902Z,63.14
2022-11-28T03:34:42.197Z,63.14
2022-11-28T03:35:41.902Z,62.91
2022-11-28T03:36:41.919Z,62.80
2022-11-28T03:37:41.925Z,62.80
2022-11-28T03:38:41.947Z,62.79
2022-11-28T03:39:41.931Z,62.79
2022-11-28T03:40:41.964Z,62.67
2022-11-28T03:41:41.888Z,62.67
2022-11-28T03:42:41.945Z,62.61
2022-11-28T03:43:41.960Z,62.46
2022-11-28T03:44:42.096Z,62.46
2022-11-28T03:45:41.928Z,62.49
2022-11-28T03:46:41.972Z,62.48
2022-11-28T03:47:41.934Z,62.48
2022-11-28T03:48:41.994Z,62.41
2022-11-28T03:49:41.965Z,62.50
2022-11-28T03:51:41.899Z,62.56
2022-11-28T03:52:41.919Z,62.55
2022-11-28T03:53:41.982Z,62.55
2022-11-28T03:54:42.190Z,62.55
2022-11-28T03:56:41.919Z,62.46
2022-11-28T03:57:41.970Z,62.48
2022-11-28T03:59:41.977Z,62.54
2022-11-28T04:01:41.995Z,62.48
2022-11-28T04:02:42.042Z,62.38
2022-11-28T04:03:41.998Z,62.33
2022-11-28T04:05:41.982Z,62.29
2022-11-28T04:06:41.944Z,62.29
2022-11-28T04:07:42.050Z,62.28
2022-11-28T04:09:41.994Z,62.29
2022-11-28T04:10:42.020Z,62.30
2022-11-28T04:11:41.997Z,62.30
2022-11-28T04:12:42.021Z,62.38
2022-11-28T04:13:42.051Z,62.37
2022-11-28T04:17:41.970Z,62.24
2022-11-28T04:18:42.072Z,62.34
2022-11-28T04:19:42.064Z,62.41
2022-11-28T04:20:42.065Z,62.46
2022-11-28T04:21:42.006Z,62.46
2022-11-28T04:23:42.062Z,62.60
2022-11-28T04:24:42.438Z,62.69
2022-11-28T04:26:42.007Z,62.73
2022-11-28T04:27:42.013Z,62.72
2022-11-28T04:28:42.085Z,62.73
2022-11-28T04:29:42.035Z,62.73
2022-11-28T04:30:42.056Z,62.56
2022-11-28T04:31:42.077Z,62.68
2022-11-28T04:32:42.073Z,62.77
2022-11-28T04:33:42.090Z,62.79
2022-11-28T04:34:42.194Z,62.94
2022-11-28T04:36:42.089Z,62.87
2022-11-28T04:37:42.074Z,63.04
2022-11-28T04:40:42.073Z,63.28
2022-11-28T04:41:42.101Z,63.12
2022-11-28T04:42:42.084Z,63.12
2022-11-28T04:45:42.174Z,62.96
2022-11-28T04:46:42.113Z,62.96
2022-11-28T04:47:42.079Z,62.96
2022-11-28T04:49:42.082Z,63.01
2022-11-28T04:50:42.076Z,63.16
2022-11-28T04:51:42.094Z,63.16
2022-11-28T04:52:42.129Z,63.59
2022-11-28T04:53:42.076Z,63.68
2022-11-28T04:54:42.420Z,63.56
2022-11-28T04:55:42.066Z,63.56
2022-11-28T04:56:42.066Z,63.49
2022-11-28T04:57:42.111Z,63.07
2022-11-28T04:58:42.115Z,63.07
2022-11-28T04:59:42.110Z,63.01
2022-11-28T05:00:42.185Z,63.01
2022-11-28T05:01:42.150Z,62.96
2022-11-28T05:02:42.163Z,62.74
2022-11-28T05:03:42.978Z,62.74
2022-11-28T05:04:42.389Z,62.74
2022-11-28T05:05:42.103Z,62.74
2022-11-28T05:06:42.204Z,62.62
2022-11-28T05:07:42.256Z,62.59
2022-11-28T05:09:42.099Z,62.57
2022-11-28T05:10:42.136Z,62.57
2022-11-28T05:11:42.134Z,62.52
2022-11-28T05:12:42.169Z,62.42
2022-11-28T05:13:42.108Z,62.42
2022-11-28T05:14:42.509Z,62.46
2022-11-28T05:15:42.152Z,62.55
2022-11-28T05:16:42.187Z,62.55
2022-11-28T05:18:42.146Z,62.40
2022-11-28T05:20:42.159Z,62.41
2022-11-28T05:21:42.147Z,62.32
2022-11-28T05:22:42.163Z,62.23
2022-11-28T05:26:42.176Z,62.19
2022-11-28T05:27:42.154Z,62.22
2022-11-28T05:28:42.195Z,62.38
2022-11-28T05:30:42.211Z,62.41
2022-11-28T05:31:42.260Z,62.41
2022-11-28T05:32:42.215Z,62.22
2022-11-28T05:34:42.604Z,62.18
2022-11-28T05:36:42.215Z,62.24
2022-11-28T05:37:42.215Z,62.18
2022-11-28T05:38:42.238Z,62.11
2022-11-28T05:39:42.542Z,62.11
2022-11-28T05:40:42.249Z,62.30
2022-11-28T05:41:42.231Z,62.38
2022-11-28T05:44:42.207Z,62.35
2022-11-28T05:45:42.297Z,62.33
2022-11-28T05:47:42.252Z,62.17
2022-11-28T05:49:42.462Z,62.16
2022-11-28T05:51:42.279Z,62.15
2022-11-28T05:54:42.215Z,62.15
2022-11-28T05:56:42.652Z,62.15
2022-11-28T05:57:42.260Z,62.15
2022-11-28T05:58:42.259Z,62.25
2022-11-28T05:59:42.576Z,62.20
2022-11-28T06:00:42.280Z,62.20
2022-11-28T06:01:42.379Z,62.25
2022-11-28T06:04:42.365Z,62.21
2022-11-28T06:05:43.719Z,62.21
2022-11-28T06:07:42.353Z,62.24
2022-11-28T06:08:42.251Z,62.16
2022-11-28T06:09:42.794Z,62.02
2022-11-28T06:10:42.283Z,61.97
2022-11-28T06:11:42.246Z,61.97
2022-11-28T06:12:42.299Z,61.85
2022-11-28T06:13:42.251Z,61.85
2022-11-28T06:14:42.286Z,61.67
2022-11-28T06:15:42.314Z,61.67
2022-11-28T06:17:42.302Z,61.59
2022-11-28T06:19:42.721Z,61.51
2022-11-28T06:20:42.281Z,61.51
2022-11-28T06:21:42.275Z,61.33
2022-11-28T06:24:42.324Z,61.29
2022-11-28T06:25:42.309Z,61.27
2022-11-28T06:26:42.289Z,61.27
2022-11-28T06:27:42.366Z,61.40
2022-11-28T06:28:42.337Z,61.40
2022-11-28T06:29:42.644Z,61.42
2022-11-28T06:30:42.347Z,61.42
2022-11-28T06:31:42.408Z,61.42
2022-11-28T06:32:42.332Z,61.38
2022-11-28T06:33:42.290Z,61.35
2022-11-28T06:34:42.380Z,61.36
2022-11-28T06:35:42.306Z,61.42
2022-11-28T06:36:42.325Z,61.42
2022-11-28T06:37:42.348Z,61.52
2022-11-28T06:38:42.340Z,61.60
2022-11-28T06:39:42.677Z,61.69
2022-11-28T06:40:42.342Z,61.86
2022-11-28T06:42:42.419Z,62.05
2022-11-28T06:43:42.360Z,62.05
2022-11-28T06:44:42.395Z,61.98
2022-11-28T06:45:42.369Z,61.98
2022-11-28T06:46:42.342Z,61.99
2022-11-28T06:47:42.361Z,61.94
2022-11-28T06:48:42.341Z,61.94
2022-11-28T06:49:42.649Z,62.00
2022-11-28T06:50:42.345Z,62.00
2022-11-28T06:51:42.379Z,62.00
2022-11-28T06:53:42.360Z,62.05
2022-11-28T06:54:42.350Z,62.04
2022-11-28T06:55:42.434Z,62.17
2022-11-28T06:56:42.360Z,62.26
2022-11-28T06:57:42.440Z,62.22
2022-11-28T06:58:42.362Z,62.22
2022-11-28T06:59:42.806Z,62.36
2022-11-28T07:00:42.422Z,62.48
2022-11-28T07:01:42.529Z,62.48
2022-11-28T07:02:42.619Z,62.61
2022-11-28T07:03:42.433Z,62.61
2022-11-28T07:04:42.374Z,62.56
2022-11-28T07:05:42.452Z,62.73
2022-11-28T07:06:42.389Z,62.87
2022-11-28T07:09:42.697Z,62.92
2022-11-28T07:10:42.457Z,62.90
2022-11-28T07:11:42.386Z,62.90
2022-11-28T07:12:42.431Z,62.78
2022-11-28T07:14:42.430Z,62.79
2022-11-28T07:15:42.430Z,62.80
2022-11-28T07:16:42.481Z,62.76
2022-11-28T07:17:42.487Z,62.64
2022-11-28T07:18:42.446Z,62.64
2022-11-28T07:20:42.468Z,62.67
2022-11-28T07:21:42.416Z,62.67
2022-11-28T07:22:42.433Z,62.52
2022-11-28T07:23:42.459Z,62.46
2022-11-28T07:24:42.459Z,62.46
2022-11-28T07:26:42.454Z,62.34
2022-11-28T07:28:42.444Z,62.37
2022-11-28T07:29:42.632Z,62.26
2022-11-28T07:30:42.470Z,62.15
2022-11-28T07:32:42.531Z,62.07
2022-11-28T07:33:42.436Z,62.07
2022-11-28T07:34:44.643Z,62.20
2022-11-28T07:35:42.515Z,62.36
2022-11-28T07:36:42.510Z,62.52
2022-11-28T07:37:42.479Z,62.56
2022-11-28T07:38:42.519Z,62.49
2022-11-28T07:39:42.747Z,62.49
2022-11-28T07:40:42.506Z,62.49
2022-11-28T07:41:42.510Z,62.50
2022-11-28T07:42:42.528Z,62.50
2022-11-28T07:43:42.535Z,62.49
2022-11-28T07:44:42.470Z,62.49
2022-11-28T07:45:59.938Z,62.18
2022-11-28T07:46:42.601Z,62.18
2022-11-28T07:48:42.523Z,62.05
2022-11-28T07:49:42.648Z,62.05
2022-11-28T07:50:43.661Z,62.25
2022-11-28T07:51:42.507Z,62.59
2022-11-28T07:52:42.528Z,62.59
2022-11-28T07:53:42.533Z,62.96
2022-11-28T07:54:42.499Z,62.96
2022-11-28T07:55:42.544Z,62.98
2022-11-28T07:57:11.919Z,63.00
2022-11-28T07:57:42.546Z,62.85
2022-11-28T07:58:42.543Z,62.75
2022-11-28T07:59:42.930Z,62.75
2022-11-28T08:00:42.555Z,62.58
2022-11-28T08:01:42.645Z,62.14
2022-11-28T08:02:42.552Z,62.14
2022-11-28T08:03:42.563Z,61.88
2022-11-28T08:04:47.765Z,61.76
2022-11-28T08:05:42.522Z,61.76
2022-11-28T08:06:42.557Z,61.55
2022-11-28T08:07:42.620Z,61.55
2022-11-28T08:08:42.581Z,61.52
2022-11-28T08:09:42.724Z,61.46
2022-11-28T08:10:42.569Z,61.32
2022-11-28T08:11:42.576Z,61.07
2022-11-28T08:12:42.603Z,61.12
2022-11-28T08:13:42.577Z,61.12
2022-11-28T08:14:42.910Z,60.84
2022-11-28T08:15:42.585Z,60.84
2022-11-28T08:16:42.689Z,60.68
2022-11-28T08:18:42.560Z,60.62
2022-11-28T08:19:42.596Z,60.62
2022-11-28T08:20:42.556Z,60.62
2022-11-28T08:21:42.611Z,60.49
2022-11-28T08:22:42.611Z,60.49
2022-11-28T08:23:42.609Z,60.41
2022-11-28T08:24:42.768Z,60.26
2022-11-28T08:26:42.615Z,60.33
2022-11-28T08:27:42.646Z,60.33
2022-11-28T08:28:42.636Z,60.33
2022-11-28T08:29:43.071Z,60.29
2022-11-28T08:30:42.700Z,60.26
2022-11-28T08:31:42.605Z,60.32
2022-11-28T08:32:42.640Z,60.71
2022-11-28T08:33:42.630Z,60.71
2022-11-28T08:34:42.635Z,60.75
2022-11-28T08:35:42.584Z,60.75
2022-11-28T08:36:42.635Z,60.87
2022-11-28T08:37:42.663Z,61.04
2022-11-28T08:38:47.042Z,61.04
2022-11-28T08:39:42.826Z,61.18
2022-11-28T08:40:42.606Z,61.24
2022-11-28T08:41:42.652Z,60.90
2022-11-28T08:42:42.646Z,60.70
2022-11-28T08:44:42.676Z,60.86
2022-11-28T08:45:42.777Z,60.85
2022-11-28T08:46:42.657Z,60.85
2022-11-28T08:47:42.714Z,60.93
2022-11-28T08:48:42.658Z,60.78
2022-11-28T08:50:46.689Z,60.48
2022-11-28T08:51:42.644Z,60.48
2022-11-28T08:52:42.672Z,60.77
2022-11-28T08:53:46.062Z,61.01
2022-11-28T08:54:42.962Z,61.01
2022-11-28T08:55:42.682Z,61.27
2022-11-28T08:56:42.644Z,61.43
2022-11-28T08:57:42.711Z,61.50
2022-11-28T08:58:42.665Z,61.54
2022-11-28T08:59:43.089Z,61.29
2022-11-28T09:00:42.722Z,61.29
2022-11-28T09:01:42.716Z,60.98
2022-11-28T09:02:42.750Z,60.86
2022-11-28T09:03:42.780Z,60.91
2022-11-28T09:04:42.714Z,60.91
2022-11-28T09:05:42.662Z,60.94
2022-11-28T09:06:42.665Z,60.84
2022-11-28T09:07:42.768Z,60.68
2022-11-28T09:08:42.733Z,60.65
2022-11-28T09:09:42.681Z,60.65
2022-11-28T09:10:42.716Z,60.54
2022-11-28T09:11:42.725Z,60.54
2022-11-28T09:12:42.727Z,60.40
2022-11-28T09:13:42.694Z,60.40
2022-11-28T09:14:42.687Z,60.59
2022-11-28T09:15:42.775Z,59.97
2022-11-28T09:16:42.872Z,59.97
2022-11-28T09:17:42.690Z,60.05
2022-11-28T09:18:42.731Z,59.96
2022-11-28T09:19:42.931Z,59.68
2022-11-28T09:20:42.732Z,59.51
2022-11-28T09:21:42.703Z,59.51
2022-11-28T09:22:42.729Z,59.47
2022-11-28T09:23:42.781Z,59.28
2022-11-28T09:24:42.724Z,59.05
2022-11-28T09:25:42.756Z,59.12
2022-11-28T09:26:42.731Z,59.12
2022-11-28T09:27:42.761Z,59.04
2022-11-28T09:28:42.788Z,58.85
2022-11-28T09:29:42.899Z,58.85
2022-11-28T09:30:42.836Z,58.90
2022-11-28T09:31:47.099Z,58.90
2022-11-28T09:33:42.793Z,58.79
2022-11-28T09:34:42.743Z,58.79
2022-11-28T09:35:42.818Z,58.66
2022-11-28T09:36:42.746Z,58.66
2022-11-28T09:37:42.748Z,58.54
2022-11-28T09:38:42.783Z,58.49
2022-11-28T09:40:04.892Z,58.51
2022-11-28T09:40:42.795Z,58.51
2022-11-28T09:41:42.797Z,58.45
2022-11-28T09:42:42.873Z,58.48
2022-11-28T09:43:42.869Z,58.59
2022-11-28T09:44:42.774Z,58.59
2022-11-28T09:45:42.829Z,58.65
2022-11-28T09:46:42.839Z,58.47
2022-11-28T09:47:42.823Z,58.47
2022-11-28T09:48:42.812Z,58.44
2022-11-28T09:49:43.307Z,58.44
2022-11-28T09:51:42.855Z,58.44
2022-11-28T09:52:42.946Z,58.07
2022-11-28T09:53:42.828Z,58.21
2022-11-28T09:54:42.783Z,58.21
2022-11-28T09:56:42.864Z,58.49
2022-11-28T09:57:42.847Z,58.51
2022-11-28T09:58:42.833Z,58.42
2022-11-28T09:59:42.939Z,58.42
2022-11-28T10:00:42.809Z,58.41
2022-11-28T10:01:42.892Z,58.04
2022-11-28T10:02:42.803Z,58.04
2022-11-28T10:03:42.901Z,57.77
2022-11-28T10:04:42.958Z,57.77
2022-11-28T10:05:42.822Z,57.40
2022-11-28T10:06:42.863Z,57.27
2022-11-28T10:07:42.925Z,57.27
2022-11-28T10:08:42.909Z,57.47
2022-11-28T10:09:43.101Z,57.47
2022-11-28T10:11:42.875Z,56.88
2022-11-28T10:12:42.873Z,56.88
2022-11-28T10:14:06.656Z,57.02
2022-11-28T10:14:42.883Z,57.02
2022-11-28T10:15:42.885Z,57.13
2022-11-28T10:16:42.978Z,56.82
2022-11-28T10:18:42.905Z,57.06
2022-11-28T10:19:54.334Z,57.06
2022-11-28T10:20:42.892Z,57.02
2022-11-28T10:21:42.917Z,57.00
2022-11-28T10:22:42.846Z,57.00
2022-11-28T10:23:42.899Z,56.53
2022-11-28T10:24:42.900Z,56.50
2022-11-28T10:25:42.906Z,56.50
2022-11-28T10:26:42.948Z,56.51
2022-11-28T10:27:42.913Z,56.54
2022-11-28T10:28:42.918Z,56.25
2022-11-28T10:29:43.129Z,56.14
2022-11-28T10:30:42.998Z,56.26
2022-11-28T10:31:42.913Z,56.26
2022-11-28T10:32:42.909Z,56.12
2022-11-28T10:35:42.896Z,56.15
2022-11-28T10:36:42.934Z,56.10
2022-11-28T10:37:42.951Z,55.88
2022-11-28T10:40:42.888Z,55.89
2022-11-28T10:41:42.926Z,55.51
2022-11-28T10:42:42.980Z,55.98
2022-11-28T10:43:42.950Z,55.98
2022-11-28T10:44:42.968Z,55.77
2022-11-28T10:45:43.063Z,55.75
2022-11-28T10:46:43.004Z,55.75
2022-11-28T10:47:42.959Z,55.53
2022-11-28T10:48:42.937Z,55.43
2022-11-28T10:49:43.331Z,55.43
2022-11-28T10:50:42.965Z,55.86
2022-11-28T10:51:42.940Z,55.89
2022-11-28T10:52:42.982Z,56.02
2022-11-28T10:53:42.976Z,56.02
2022-11-28T10:54:42.968Z,56.11
2022-11-28T10:55:42.976Z,56.23
2022-11-28T10:56:43.063Z,56.12
2022-11-28T10:57:43.021Z,55.64
2022-11-28T10:58:42.955Z,55.14
2022-11-28T10:59:43.108Z,55.06
2022-11-28T11:00:42.989Z,55.06
2022-11-28T11:01:45.960Z,54.70
2022-11-28T11:02:43.020Z,54.81
2022-11-28T11:03:42.991Z,54.81
2022-11-28T11:04:43.065Z,54.96
2022-11-28T11:05:43.028Z,54.77
2022-11-28T11:07:06.957Z,54.39
2022-11-28T11:07:43.047Z,53.87
2022-11-28T11:08:42.985Z,53.87
2022-11-28T11:09:43.277Z,53.85
2022-11-28T11:10:43.011Z,53.57
2022-11-28T11:11:42.998Z,53.57
2022-11-28T11:12:43.024Z,53.24
2022-11-28T11:13:42.990Z,53.36
2022-11-28T11:14:42.985Z,53.36
2022-11-28T11:15:43.093Z,53.29
2022-11-28T11:16:43.028Z,53.29
2022-11-28T11:17:43.005Z,52.74
2022-11-28T11:18:42.999Z,52.67
2022-11-28T11:19:43.306Z,52.53
2022-11-28T11:20:43.034Z,52.45
2022-11-28T11:21:43.043Z,52.45
2022-11-28T11:22:45.153Z,52.00
2022-11-28T11:23:43.049Z,52.20
2022-11-28T11:24:42.998Z,52.20
2022-11-28T11:25:43.108Z,51.28
2022-11-28T11:26:43.076Z,51.26
2022-11-28T11:27:43.010Z,51.26
2022-11-28T11:28:43.062Z,51.40
2022-11-28T11:29:44.915Z,51.37
2022-11-28T11:30:43.114Z,51.39
2022-11-28T11:31:43.069Z,51.39
2022-11-28T11:32:46.290Z,51.23
2022-11-28T11:33:43.070Z,51.72
2022-11-28T11:34:43.048Z,51.72
2022-11-28T11:35:43.112Z,51.73
2022-11-28T11:36:43.034Z,51.73
2022-11-28T11:37:43.065Z,51.50
2022-11-28T11:38:43.127Z,51.40
2022-11-28T11:39:43.311Z,51.40
2022-11-28T11:40:43.036Z,51.40
2022-11-28T11:42:43.105Z,51.31
2022-11-28T11:43:43.130Z,50.87
2022-11-28T11:44:43.146Z,51.13
2022-11-28T11:46:43.102Z,51.38
2022-11-28T11:47:43.138Z,51.47
2022-11-28T11:48:43.144Z,51.50
2022-11-28T11:49:43.344Z,51.60
2022-11-28T11:50:43.092Z,51.60
2022-11-28T11:52:43.127Z,51.73
2022-11-28T11:54:43.113Z,51.43
2022-11-28T11:55:43.158Z,51.47
2022-11-28T11:56:43.160Z,51.67
2022-11-28T11:57:43.093Z,51.67
2022-11-28T11:59:43.403Z,52.23
2022-11-28T12:00:43.123Z,52.27
2022-11-28T12:01:43.177Z,52.10
2022-11-28T12:02:43.295Z,52.17
2022-11-28T12:03:43.279Z,52.22
2022-11-28T12:04:46.466Z,52.22
2022-11-28T12:06:12.273Z,52.18
2022-11-28T12:07:43.228Z,52.09
2022-11-28T12:08:43.177Z,52.11
2022-11-28T12:09:43.311Z,52.11
2022-11-28T12:10:43.126Z,52.14
2022-11-28T12:11:46.920Z,52.41
2022-11-28T12:13:43.199Z,52.45
2022-11-28T12:14:43.470Z,52.45
2022-11-28T12:15:43.247Z,52.67
2022-11-28T12:16:43.320Z,52.67
2022-11-28T12:17:49.095Z,52.66
2022-11-28T12:18:43.253Z,52.81
2022-11-28T12:19:43.191Z,52.76
2022-11-28T12:20:43.196Z,52.76
2022-11-28T12:21:43.235Z,52.79
2022-11-28T12:22:43.216Z,52.76
2022-11-28T12:23:43.227Z,52.72
2022-11-28T12:25:43.194Z,52.78
2022-11-28T12:27:43.184Z,52.64
2022-11-28T12:31:43.319Z,52.74
2022-11-28T12:32:43.224Z,52.59
2022-11-28T12:33:43.232Z,52.59
2022-11-28T12:35:43.228Z,52.75
2022-11-28T12:36:43.216Z,52.47
2022-11-28T12:38:09.747Z,52.47
2022-11-28T12:38:43.238Z,52.66
2022-11-28T12:39:43.779Z,53.03
2022-11-28T12:42:43.248Z,52.77
2022-11-28T12:43:43.250Z,52.77
2022-11-28T12:44:43.307Z,52.42
2022-11-28T12:45:43.241Z,52.42
2022-11-28T12:46:43.307Z,52.69
2022-11-28T12:47:43.242Z,52.77
2022-11-28T12:49:43.665Z,52.75
2022-11-28T12:50:43.251Z,52.75
2022-11-28T12:51:43.280Z,52.41
2022-11-28T12:52:43.284Z,52.41
2022-11-28T12:53:43.262Z,52.54
2022-11-28T12:54:43.312Z,52.40
2022-11-28T12:55:43.293Z,52.63
2022-11-28T12:56:43.277Z,52.63
2022-11-28T12:57:43.277Z,52.62
2022-11-28T12:59:43.577Z,53.39
2022-11-28T13:00:43.293Z,53.32
2022-11-28T13:01:43.317Z,53.32
2022-11-28T13:02:43.428Z,53.25
2022-11-28T13:03:43.251Z,53.25
2022-11-28T13:04:43.695Z,53.17
2022-11-28T13:05:43.308Z,53.21
2022-11-28T13:06:43.299Z,53.21
2022-11-28T13:07:43.329Z,53.17
2022-11-28T13:08:48.249Z,53.17
2022-11-28T13:09:43.704Z,53.14
2022-11-28T13:10:43.319Z,53.03
2022-11-28T13:11:43.303Z,53.03
2022-11-28T13:12:43.345Z,52.90
2022-11-28T13:13:43.328Z,52.90
2022-11-28T13:14:43.756Z,52.88
2022-11-28T13:15:43.419Z,52.91
2022-11-28T13:17:43.324Z,52.89
2022-11-28T13:18:43.302Z,52.89
2022-11-28T13:19:43.293Z,52.76
2022-11-28T13:20:43.411Z,52.82
2022-11-28T13:23:43.354Z,52.79
2022-11-28T13:24:43.321Z,52.83
2022-11-28T13:25:43.391Z,52.83
2022-11-28T13:26:43.381Z,52.75
2022-11-28T13:27:43.394Z,52.69
2022-11-28T13:28:43.357Z,52.75
2022-11-28T13:29:43.389Z,52.81
2022-11-28T13:30:43.392Z,52.99
2022-11-28T13:31:43.400Z,52.99
2022-11-28T13:32:43.411Z,53.31
2022-11-28T13:34:43.434Z,53.38
2022-11-28T13:39:43.343Z,53.54
2022-11-28T13:40:43.391Z,53.67
2022-11-28T13:42:13.900Z,53.67
2022-11-28T13:43:03.338Z,53.53
2022-11-28T13:43:43.350Z,53.53
2022-11-28T13:45:43.440Z,53.52
2022-11-28T13:46:43.485Z,53.54
2022-11-28T13:49:12.774Z,53.49
2022-11-28T13:49:43.420Z,53.63
2022-11-28T13:52:43.403Z,53.33
2022-11-28T13:53:43.445Z,53.25
2022-11-28T13:55:43.451Z,53.38
2022-11-28T13:56:43.450Z,53.38
2022-11-28T13:57:43.476Z,53.34
2022-11-28T13:58:43.399Z,53.34
2022-11-28T13:59:43.431Z,53.29
2022-11-28T14:00:43.447Z,53.07
2022-11-28T14:01:43.443Z,53.07
2022-11-28T14:02:43.505Z,53.44
2022-11-28T14:03:44.161Z,53.44
2022-11-28T14:04:43.923Z,53.54
2022-11-28T14:05:43.492Z,53.50
2022-11-28T14:06:44.539Z,53.56
2022-11-28T14:07:43.509Z,53.45
2022-11-28T14:09:43.458Z,53.44
2022-11-28T14:11:43.452Z,53.59
2022-11-28T14:12:43.452Z,53.59
2022-11-28T14:14:43.928Z,53.72
2022-11-28T14:15:43.528Z,53.42
2022-11-28T14:16:48.398Z,53.42
2022-11-28T14:17:43.501Z,53.56
2022-11-28T14:18:56.973Z,53.66
2022-11-28T14:21:43.478Z,53.61
2022-11-28T14:24:43.813Z,53.60
2022-11-28T14:25:43.500Z,53.77
2022-11-28T14:26:43.471Z,53.73
2022-11-28T14:27:43.514Z,53.73
2022-11-28T14:28:43.521Z,53.51
2022-11-28T14:29:43.507Z,53.48
2022-11-28T14:30:43.504Z,53.27
2022-11-28T14:31:55.395Z,52.37
2022-11-28T14:32:43.544Z,52.33
2022-11-28T14:35:43.499Z,52.01
2022-11-28T14:36:43.529Z,51.33
2022-11-28T14:37:43.540Z,51.33
2022-11-28T14:39:43.525Z,51.29
2022-11-28T14:41:43.529Z,50.86
2022-11-28T14:42:59.975Z,50.86
2022-11-28T14:44:43.606Z,50.80
2022-11-28T14:45:43.551Z,50.80
2022-11-28T14:46:43.648Z,50.99
2022-11-28T14:47:43.562Z,50.99
2022-11-28T14:48:43.582Z,51.02
2022-11-28T14:49:43.607Z,50.94
2022-11-28T14:50:43.545Z,50.94
2022-11-28T14:51:43.553Z,50.81
2022-11-28T14:52:43.537Z,50.81
2022-11-28T14:53:43.573Z,50.70
2022-11-28T14:56:43.613Z,50.69
2022-11-28T14:57:43.530Z,50.81
2022-11-28T14:58:43.568Z,50.84
2022-11-28T15:00:43.559Z,50.70
2022-11-28T15:01:43.579Z,50.59
2022-11-28T15:02:43.647Z,50.59
2022-11-28T15:03:43.552Z,50.68
2022-11-28T15:04:43.993Z,50.45
2022-11-28T15:05:43.557Z,50.48
2022-11-28T15:07:43.649Z,50.81
2022-11-28T15:08:43.620Z,50.65
2022-11-28T15:09:43.662Z,50.38
2022-11-28T15:11:43.649Z,50.51
2022-11-28T15:12:43.631Z,50.27
2022-11-28T15:13:43.613Z,50.27
2022-11-28T15:15:43.652Z,50.27
2022-11-28T15:16:49.630Z,49.67
2022-11-28T15:17:43.628Z,49.67
2022-11-28T15:18:43.589Z,49.97
2022-11-28T15:19:43.644Z,50.12
2022-11-28T15:20:43.634Z,50.12
2022-11-28T15:24:44.011Z,50.00
2022-11-28T15:26:43.676Z,49.96
2022-11-28T15:27:43.612Z,49.24
2022-11-28T15:28:43.626Z,49.04
2022-11-28T15:29:43.646Z,49.88
2022-11-28T15:31:43.710Z,50.08
2022-11-28T15:32:43.643Z,49.76
2022-11-28T15:33:43.621Z,49.76
2022-11-28T15:34:43.966Z,49.61
2022-11-28T15:35:43.684Z,49.59
2022-11-28T15:36:43.749Z,49.20
2022-11-28T15:37:43.648Z,49.20